sensor_id;sensor_type;location;lat;lon;timestamp;P1;durP1;ratioP1;P2;durP2;ratioP2
19566;SDS011;9930;49.240;8.548;2023-07-13T00:00:14;1.45;;;1.20;;
19566;SDS011;9930;49.240;8.548;2023-07-13T00:02:42;1.20;;;1.10;;
19566;SDS011;9930;49.240;8.548;2023-07-13T00:05:18;2.13;;;1.60;;
19566;SDS011;9930;49.240;8.548;2023-07-13T00:07:45;1.33;;;1.23;;
19566;SDS011;9930;49.240;8.548;2023-07-13T00:10:11;1.40;;;1.30;;
19566;SDS011;9930;49.240;8.548;2023-07-13T00:12:42;2.28;;;1.40;;
19566;SDS011;9930;49.240;8.548;2023-07-13T00:15:16;1.73;;;1.45;;
19566;SDS011;9930;49.240;8.548;2023-07-13T00:17:48;1.48;;;1.30;;
19566;SDS011;9930;49.240;8.548;2023-07-13T00:20:16;1.60;;;1.48;;
19566;SDS011;9930;49.240;8.548;2023-07-13T00:22:42;1.10;;;0.90;;
19566;SDS011;9930;49.240;8.548;2023-07-13T00:25:14;1.33;;;1.23;;
19566;SDS011;9930;49.240;8.548;2023-07-13T00:27:44;1.50;;;1.35;;
19566;SDS011;9930;49.240;8.548;2023-07-13T00:30:14;1.27;;;1.17;;
19566;SDS011;9930;49.240;8.548;2023-07-13T00:32:47;1.40;;;1.30;;
19566;SDS011;9930;49.240;8.548;2023-07-13T00:35:16;1.38;;;1.27;;
19566;SDS011;9930;49.240;8.548;2023-07-13T00:37:42;1.30;;;1.20;;
19566;SDS011;9930;49.240;8.548;2023-07-13T00:40:13;1.45;;;1.20;;
19566;SDS011;9930;49.240;8.548;2023-07-13T00:42:40;1.70;;;1.25;;
19566;SDS011;9930;49.240;8.548;2023-07-13T00:47:44;1.67;;;1.45;;
19566;SDS011;9930;49.240;8.548;2023-07-13T00:50:12;1.30;;;1.20;;
19566;SDS011;9930;49.240;8.548;2023-07-13T00:52:45;1.58;;;1.30;;
19566;SDS011;9930;49.240;8.548;2023-07-13T00:55:15;1.92;;;1.42;;
19566;SDS011;9930;49.240;8.548;2023-07-13T00:57:45;1.50;;;1.20;;
19566;SDS011;9930;49.240;8.548;2023-07-13T01:00:11;1.88;;;1.20;;
19566;SDS011;9930;49.240;8.548;2023-07-13T01:02:40;1.65;;;1.25;;
19566;SDS011;9930;49.240;8.548;2023-07-13T01:05:18;1.73;;;1.13;;
19566;SDS011;9930;49.240;8.548;2023-07-13T01:07:49;1.52;;;1.40;;
19566;SDS011;9930;49.240;8.548;2023-07-13T01:10:17;1.30;;;1.20;;
19566;SDS011;9930;49.240;8.548;2023-07-13T01:12:49;1.50;;;1.00;;
19566;SDS011;9930;49.240;8.548;2023-07-13T01:18:23;1.35;;;1.25;;
19566;SDS011;9930;49.240;8.548;2023-07-13T01:20:54;2.00;;;1.10;;
19566;SDS011;9930;49.240;8.548;2023-07-13T01:23:25;1.30;;;1.20;;
19566;SDS011;9930;49.240;8.548;2023-07-13T01:25:52;1.77;;;1.35;;
19566;SDS011;9930;49.240;8.548;2023-07-13T01:28:23;1.83;;;1.33;;
19566;SDS011;9930;49.240;8.548;2023-07-13T01:30:52;2.47;;;1.25;;
19566;SDS011;9930;49.240;8.548;2023-07-13T01:33:23;1.30;;;1.20;;
19566;SDS011;9930;49.240;8.548;2023-07-13T01:35:52;2.13;;;1.40;;
19566;SDS011;9930;49.240;8.548;2023-07-13T01:38:22;1.88;;;1.40;;
19566;SDS011;9930;49.240;8.548;2023-07-13T01:40:51;1.67;;;1.30;;
19566;SDS011;9930;49.240;8.548;2023-07-13T01:43:18;1.48;;;1.30;;
19566;SDS011;9930;49.240;8.548;2023-07-13T01:45:44;2.78;;;1.20;;
19566;SDS011;9930;49.240;8.548;2023-07-13T01:48:11;2.53;;;1.20;;
19566;SDS011;9930;49.240;8.548;2023-07-13T01:50:44;1.65;;;1.40;;
19566;SDS011;9930;49.240;8.548;2023-07-13T01:53:10;1.45;;;1.35;;
19566;SDS011;9930;49.240;8.548;2023-07-13T01:55:36;1.50;;;1.40;;
19566;SDS011;9930;49.240;8.548;2023-07-13T01:58:05;1.30;;;1.20;;
19566;SDS011;9930;49.240;8.548;2023-07-13T02:00:36;1.40;;;1.30;;
19566;SDS011;9930;49.240;8.548;2023-07-13T02:03:06;1.48;;;1.35;;
19566;SDS011;9930;49.240;8.548;2023-07-13T02:05:31;1.40;;;1.30;;
19566;SDS011;9930;49.240;8.548;2023-07-13T02:07:59;1.60;;;1.50;;
19566;SDS011;9930;49.240;8.548;2023-07-13T02:10:25;2.10;;;1.38;;
19566;SDS011;9930;49.240;8.548;2023-07-13T02:12:50;1.92;;;1.30;;
19566;SDS011;9930;49.240;8.548;2023-07-13T02:15:16;1.50;;;1.40;;
19566;SDS011;9930;49.240;8.548;2023-07-13T02:17:42;1.70;;;1.55;;
19566;SDS011;9930;49.240;8.548;2023-07-13T02:20:09;1.60;;;1.50;;
19566;SDS011;9930;49.240;8.548;2023-07-13T02:22:35;1.40;;;1.30;;
19566;SDS011;9930;49.240;8.548;2023-07-13T02:25:00;1.60;;;1.50;;
19566;SDS011;9930;49.240;8.548;2023-07-13T02:27:26;1.65;;;1.50;;
19566;SDS011;9930;49.240;8.548;2023-07-13T02:29:54;2.85;;;1.50;;
19566;SDS011;9930;49.240;8.548;2023-07-13T02:32:20;1.58;;;1.48;;
19566;SDS011;9930;49.240;8.548;2023-07-13T02:34:46;1.55;;;1.40;;
19566;SDS011;9930;49.240;8.548;2023-07-13T02:37:12;1.55;;;1.20;;
19566;SDS011;9930;49.240;8.548;2023-07-13T02:39:40;1.58;;;1.35;;
19566;SDS011;9930;49.240;8.548;2023-07-13T02:42:08;1.50;;;1.40;;
19566;SDS011;9930;49.240;8.548;2023-07-13T02:44:34;1.83;;;1.40;;
19566;SDS011;9930;49.240;8.548;2023-07-13T02:47:00;2.03;;;1.65;;
19566;SDS011;9930;49.240;8.548;2023-07-13T02:49:25;2.72;;;1.70;;
19566;SDS011;9930;49.240;8.548;2023-07-13T02:51:56;1.45;;;1.35;;
19566;SDS011;9930;49.240;8.548;2023-07-13T02:54:22;1.80;;;1.70;;
19566;SDS011;9930;49.240;8.548;2023-07-13T02:56:48;3.03;;;1.45;;
19566;SDS011;9930;49.240;8.548;2023-07-13T02:59:13;1.40;;;1.30;;
19566;SDS011;9930;49.240;8.548;2023-07-13T03:01:47;1.92;;;1.35;;
19566;SDS011;9930;49.240;8.548;2023-07-13T03:04:13;1.50;;;1.40;;
19566;SDS011;9930;49.240;8.548;2023-07-13T03:06:46;1.67;;;1.58;;
19566;SDS011;9930;49.240;8.548;2023-07-13T03:09:12;2.35;;;1.50;;
19566;SDS011;9930;49.240;8.548;2023-07-13T03:11:38;1.50;;;1.40;;
19566;SDS011;9930;49.240;8.548;2023-07-13T03:14:04;1.60;;;1.42;;
19566;SDS011;9930;49.240;8.548;2023-07-13T03:16:30;1.60;;;1.50;;
19566;SDS011;9930;49.240;8.548;2023-07-13T03:18:56;1.50;;;1.38;;
19566;SDS011;9930;49.240;8.548;2023-07-13T03:21:24;1.50;;;1.40;;
19566;SDS011;9930;49.240;8.548;2023-07-13T03:23:50;3.17;;;1.42;;
19566;SDS011;9930;49.240;8.548;2023-07-13T03:26:18;1.58;;;1.48;;
19566;SDS011;9930;49.240;8.548;2023-07-13T03:28:47;1.63;;;1.30;;
19566;SDS011;9930;49.240;8.548;2023-07-13T03:31:18;1.60;;;1.50;;
19566;SDS011;9930;49.240;8.548;2023-07-13T03:33:47;1.63;;;1.30;;
19566;SDS011;9930;49.240;8.548;2023-07-13T03:36:14;2.38;;;1.67;;
19566;SDS011;9930;49.240;8.548;2023-07-13T03:38:51;2.50;;;1.58;;
19566;SDS011;9930;49.240;8.548;2023-07-13T03:41:22;1.85;;;1.50;;
19566;SDS011;9930;49.240;8.548;2023-07-13T03:43:52;2.55;;;1.58;;
19566;SDS011;9930;49.240;8.548;2023-07-13T03:46:22;2.08;;;1.50;;
19566;SDS011;9930;49.240;8.548;2023-07-13T03:48:48;1.60;;;1.50;;
19566;SDS011;9930;49.240;8.548;2023-07-13T03:51:18;1.58;;;1.48;;
19566;SDS011;9930;49.240;8.548;2023-07-13T03:53:45;1.65;;;1.55;;
19566;SDS011;9930;49.240;8.548;2023-07-13T03:56:14;1.65;;;1.50;;
19566;SDS011;9930;49.240;8.548;2023-07-13T03:58:43;1.67;;;1.48;;
19566;SDS011;9930;49.240;8.548;2023-07-13T04:01:21;1.65;;;1.30;;
19566;SDS011;9930;49.240;8.548;2023-07-13T04:03:51;1.90;;;1.50;;
19566;SDS011;9930;49.240;8.548;2023-07-13T04:06:20;1.63;;;1.50;;
19566;SDS011;9930;49.240;8.548;2023-07-13T04:08:52;8.10;;;4.72;;
19566;SDS011;9930;49.240;8.548;2023-07-13T04:11:21;9.07;;;6.03;;
19566;SDS011;9930;49.240;8.548;2023-07-13T04:13:53;5.13;;;3.60;;
19566;SDS011;9930;49.240;8.548;2023-07-13T04:16:19;3.60;;;2.50;;
19566;SDS011;9930;49.240;8.548;2023-07-13T04:18:46;3.10;;;2.03;;
19566;SDS011;9930;49.240;8.548;2023-07-13T04:21:15;1.95;;;1.63;;
19566;SDS011;9930;49.240;8.548;2023-07-13T04:23:43;1.58;;;1.48;;
19566;SDS011;9930;49.240;8.548;2023-07-13T04:26:14;1.95;;;1.70;;
19566;SDS011;9930;49.240;8.548;2023-07-13T04:28:43;1.67;;;1.50;;
19566;SDS011;9930;49.240;8.548;2023-07-13T04:31:14;1.67;;;1.50;;
19566;SDS011;9930;49.240;8.548;2023-07-13T04:33:43;2.60;;;1.60;;
19566;SDS011;9930;49.240;8.548;2023-07-13T04:36:16;1.80;;;1.45;;
19566;SDS011;9930;49.240;8.548;2023-07-13T04:38:45;1.88;;;1.75;;
19566;SDS011;9930;49.240;8.548;2023-07-13T04:41:11;1.88;;;1.65;;
19566;SDS011;9930;49.240;8.548;2023-07-13T04:43:40;2.08;;;1.88;;
19566;SDS011;9930;49.240;8.548;2023-07-13T04:46:10;2.30;;;1.60;;
19566;SDS011;9930;49.240;8.548;2023-07-13T04:48:43;2.78;;;1.85;;
19566;SDS011;9930;49.240;8.548;2023-07-13T04:51:15;1.88;;;1.60;;
19566;SDS011;9930;49.240;8.548;2023-07-13T04:53:41;2.08;;;1.73;;
19566;SDS011;9930;49.240;8.548;2023-07-13T04:56:06;2.42;;;1.50;;
19566;SDS011;9930;49.240;8.548;2023-07-13T04:58:32;1.90;;;1.75;;
19566;SDS011;9930;49.240;8.548;2023-07-13T05:01:02;1.95;;;1.77;;
19566;SDS011;9930;49.240;8.548;2023-07-13T05:03:33;2.00;;;1.40;;
19566;SDS011;9930;49.240;8.548;2023-07-13T05:06:08;2.33;;;1.75;;
19566;SDS011;9930;49.240;8.548;2023-07-13T05:08:38;2.50;;;1.70;;
19566;SDS011;9930;49.240;8.548;2023-07-13T05:11:06;1.77;;;1.58;;
19566;SDS011;9930;49.240;8.548;2023-07-13T05:13:32;2.05;;;1.58;;
19566;SDS011;9930;49.240;8.548;2023-07-13T05:15:59;1.75;;;1.45;;
19566;SDS011;9930;49.240;8.548;2023-07-13T05:18:28;1.52;;;1.42;;
19566;SDS011;9930;49.240;8.548;2023-07-13T05:21:02;1.60;;;1.50;;
19566;SDS011;9930;49.240;8.548;2023-07-13T05:23:33;1.75;;;1.65;;
19566;SDS011;9930;49.240;8.548;2023-07-13T05:26:00;1.70;;;1.33;;
19566;SDS011;9930;49.240;8.548;2023-07-13T05:28:30;1.63;;;1.52;;
19566;SDS011;9930;49.240;8.548;2023-07-13T05:30:57;1.50;;;1.40;;
19566;SDS011;9930;49.240;8.548;2023-07-13T05:33:24;3.08;;;2.55;;
19566;SDS011;9930;49.240;8.548;2023-07-13T05:35:53;3.05;;;2.22;;
19566;SDS011;9930;49.240;8.548;2023-07-13T05:38:21;2.15;;;1.73;;
19566;SDS011;9930;49.240;8.548;2023-07-13T05:40:49;1.98;;;1.70;;
19566;SDS011;9930;49.240;8.548;2023-07-13T05:43:16;2.40;;;1.83;;
19566;SDS011;9930;49.240;8.548;2023-07-13T05:45:43;1.80;;;1.70;;
19566;SDS011;9930;49.240;8.548;2023-07-13T05:48:12;2.03;;;1.75;;
19566;SDS011;9930;49.240;8.548;2023-07-13T05:50:43;1.40;;;1.30;;
19566;SDS011;9930;49.240;8.548;2023-07-13T05:53:09;1.75;;;1.55;;
19566;SDS011;9930;49.240;8.548;2023-07-13T05:55:40;1.85;;;1.65;;
19566;SDS011;9930;49.240;8.548;2023-07-13T05:58:13;3.38;;;2.20;;
19566;SDS011;9930;49.240;8.548;2023-07-13T06:00:58;3.75;;;1.90;;
19566;SDS011;9930;49.240;8.548;2023-07-13T06:03:30;2.78;;;1.67;;
19566;SDS011;9930;49.240;8.548;2023-07-13T06:05:58;1.80;;;1.70;;
19566;SDS011;9930;49.240;8.548;2023-07-13T06:08:29;2.03;;;1.83;;
19566;SDS011;9930;49.240;8.548;2023-07-13T06:11:01;2.08;;;1.58;;
19566;SDS011;9930;49.240;8.548;2023-07-13T06:13:46;1.77;;;1.60;;
19566;SDS011;9930;49.240;8.548;2023-07-13T06:16:14;1.63;;;1.50;;
19566;SDS011;9930;49.240;8.548;2023-07-13T06:18:43;1.83;;;1.48;;
19566;SDS011;9930;49.240;8.548;2023-07-13T06:21:21;2.17;;;1.45;;
19566;SDS011;9930;49.240;8.548;2023-07-13T06:23:50;1.52;;;1.42;;
19566;SDS011;9930;49.240;8.548;2023-07-13T06:26:19;2.60;;;1.70;;
19566;SDS011;9930;49.240;8.548;2023-07-13T06:28:48;1.90;;;1.70;;
19566;SDS011;9930;49.240;8.548;2023-07-13T06:31:16;1.95;;;1.60;;
19566;SDS011;9930;49.240;8.548;2023-07-13T06:33:46;1.85;;;1.40;;
19566;SDS011;9930;49.240;8.548;2023-07-13T06:36:14;1.85;;;1.67;;
19566;SDS011;9930;49.240;8.548;2023-07-13T06:38:41;1.80;;;1.60;;
19566;SDS011;9930;49.240;8.548;2023-07-13T06:41:08;1.65;;;1.40;;
19566;SDS011;9930;49.240;8.548;2023-07-13T06:43:34;1.50;;;1.40;;
19566;SDS011;9930;49.240;8.548;2023-07-13T06:46:00;1.50;;;1.15;;
19566;SDS011;9930;49.240;8.548;2023-07-13T06:48:28;2.92;;;1.92;;
19566;SDS011;9930;49.240;8.548;2023-07-13T06:50:56;1.60;;;1.50;;
19566;SDS011;9930;49.240;8.548;2023-07-13T06:53:24;2.05;;;1.48;;
19566;SDS011;9930;49.240;8.548;2023-07-13T06:55:50;2.60;;;1.60;;
19566;SDS011;9930;49.240;8.548;2023-07-13T06:58:16;1.73;;;1.30;;
19566;SDS011;9930;49.240;8.548;2023-07-13T07:00:43;8.60;;;1.83;;
19566;SDS011;9930;49.240;8.548;2023-07-13T07:03:18;1.38;;;1.27;;
19566;SDS011;9930;49.240;8.548;2023-07-13T07:05:47;2.20;;;1.58;;
19566;SDS011;9930;49.240;8.548;2023-07-13T07:08:14;1.77;;;1.20;;
19566;SDS011;9930;49.240;8.548;2023-07-13T07:10:45;2.08;;;1.30;;
19566;SDS011;9930;49.240;8.548;2023-07-13T07:13:13;1.65;;;1.33;;
19566;SDS011;9930;49.240;8.548;2023-07-13T07:15:41;1.60;;;1.48;;
19566;SDS011;9930;49.240;8.548;2023-07-13T07:18:13;1.50;;;1.40;;
19566;SDS011;9930;49.240;8.548;2023-07-13T07:20:43;3.45;;;1.88;;
19566;SDS011;9930;49.240;8.548;2023-07-13T07:23:10;1.30;;;1.20;;
19566;SDS011;9930;49.240;8.548;2023-07-13T07:25:42;1.70;;;1.50;;
19566;SDS011;9930;49.240;8.548;2023-07-13T07:28:14;1.52;;;1.20;;
19566;SDS011;9930;49.240;8.548;2023-07-13T07:30:47;1.80;;;1.40;;
19566;SDS011;9930;49.240;8.548;2023-07-13T07:33:17;1.45;;;1.35;;
19566;SDS011;9930;49.240;8.548;2023-07-13T07:35:43;1.55;;;1.30;;
19566;SDS011;9930;49.240;8.548;2023-07-13T07:38:10;1.50;;;1.40;;
19566;SDS011;9930;49.240;8.548;2023-07-13T07:40:39;1.52;;;1.40;;
19566;SDS011;9930;49.240;8.548;2023-07-13T07:43:08;2.30;;;1.30;;
19566;SDS011;9930;49.240;8.548;2023-07-13T07:45:37;2.28;;;1.13;;
19566;SDS011;9930;49.240;8.548;2023-07-13T07:48:04;1.70;;;1.60;;
19566;SDS011;9930;49.240;8.548;2023-07-13T07:50:31;1.40;;;1.30;;
19566;SDS011;9930;49.240;8.548;2023-07-13T07:53:01;1.38;;;1.27;;
19566;SDS011;9930;49.240;8.548;2023-07-13T07:55:32;1.38;;;1.10;;
19566;SDS011;9930;49.240;8.548;2023-07-13T07:58:01;1.35;;;1.23;;
19566;SDS011;9930;49.240;8.548;2023-07-13T08:00:27;2.47;;;1.50;;
19566;SDS011;9930;49.240;8.548;2023-07-13T08:02:56;1.48;;;1.38;;
19566;SDS011;9930;49.240;8.548;2023-07-13T08:05:21;1.33;;;1.17;;
19566;SDS011;9930;49.240;8.548;2023-07-13T08:07:49;1.48;;;1.30;;
19566;SDS011;9930;49.240;8.548;2023-07-13T08:10:17;1.85;;;1.42;;
19566;SDS011;9930;49.240;8.548;2023-07-13T08:12:43;2.72;;;1.65;;
19566;SDS011;9930;49.240;8.548;2023-07-13T08:15:11;2.63;;;1.48;;
19566;SDS011;9930;49.240;8.548;2023-07-13T08:17:42;2.80;;;1.98;;
19566;SDS011;9930;49.240;8.548;2023-07-13T08:20:10;2.08;;;1.55;;
19566;SDS011;9930;49.240;8.548;2023-07-13T08:22:36;3.05;;;1.73;;
19566;SDS011;9930;49.240;8.548;2023-07-13T08:25:01;2.38;;;1.73;;
19566;SDS011;9930;49.240;8.548;2023-07-13T08:27:30;2.13;;;1.90;;
19566;SDS011;9930;49.240;8.548;2023-07-13T08:29:57;4.95;;;1.88;;
19566;SDS011;9930;49.240;8.548;2023-07-13T08:32:23;2.17;;;1.60;;
19566;SDS011;9930;49.240;8.548;2023-07-13T08:34:51;1.58;;;1.45;;
19566;SDS011;9930;49.240;8.548;2023-07-13T08:37:19;1.85;;;1.55;;
19566;SDS011;9930;49.240;8.548;2023-07-13T08:39:48;1.20;;;1.10;;
19566;SDS011;9930;49.240;8.548;2023-07-13T08:42:32;2.00;;;1.10;;
19566;SDS011;9930;49.240;8.548;2023-07-13T08:48:28;2.45;;;1.23;;
19566;SDS011;9930;49.240;8.548;2023-07-13T08:51:16;1.40;;;1.05;;
19566;SDS011;9930;49.240;8.548;2023-07-13T08:54:00;1.88;;;1.23;;
19566;SDS011;9930;49.240;8.548;2023-07-13T08:56:35;1.88;;;1.23;;
19566;SDS011;9930;49.240;8.548;2023-07-13T08:59:11;2.83;;;1.30;;
19566;SDS011;9930;49.240;8.548;2023-07-13T09:04:50;1.67;;;1.23;;
19566;SDS011;9930;49.240;8.548;2023-07-13T09:10:40;1.30;;;1.20;;
19566;SDS011;9930;49.240;8.548;2023-07-13T09:13:16;2.17;;;1.13;;
19566;SDS011;9930;49.240;8.548;2023-07-13T09:16:00;2.15;;;1.40;;
19566;SDS011;9930;49.240;8.548;2023-07-13T09:18:33;1.60;;;1.30;;
19566;SDS011;9930;49.240;8.548;2023-07-13T09:21:10;1.50;;;1.30;;
19566;SDS011;9930;49.240;8.548;2023-07-13T09:23:45;1.70;;;1.08;;
19566;SDS011;9930;49.240;8.548;2023-07-13T09:28:47;2.00;;;1.35;;
19566;SDS011;9930;49.240;8.548;2023-07-13T09:31:34;2.10;;;1.40;;
19566;SDS011;9930;49.240;8.548;2023-07-13T09:34:13;1.38;;;1.27;;
19566;SDS011;9930;49.240;8.548;2023-07-13T09:36:41;3.33;;;1.25;;
19566;SDS011;9930;49.240;8.548;2023-07-13T09:39:27;3.70;;;1.38;;
19566;SDS011;9930;49.240;8.548;2023-07-13T09:42:01;1.13;;;1.05;;
19566;SDS011;9930;49.240;8.548;2023-07-13T09:47:32;2.30;;;1.10;;
19566;SDS011;9930;49.240;8.548;2023-07-13T09:50:09;2.35;;;1.30;;
19566;SDS011;9930;49.240;8.548;2023-07-13T09:52:48;2.15;;;1.40;;
19566;SDS011;9930;49.240;8.548;2023-07-13T09:55:23;1.23;;;1.13;;
19566;SDS011;9930;49.240;8.548;2023-07-13T09:58:14;2.55;;;1.30;;
19566;SDS011;9930;49.240;8.548;2023-07-13T10:03:31;2.45;;;1.60;;
19566;SDS011;9930;49.240;8.548;2023-07-13T10:06:11;1.10;;;1.00;;
19566;SDS011;9930;49.240;8.548;2023-07-13T10:08:56;2.00;;;1.20;;
19566;SDS011;9930;49.240;8.548;2023-07-13T10:11:28;1.40;;;1.10;;
19566;SDS011;9930;49.240;8.548;2023-07-13T10:16:31;3.63;;;1.25;;
19566;SDS011;9930;49.240;8.548;2023-07-13T10:19:00;1.40;;;1.10;;
19566;SDS011;9930;49.240;8.548;2023-07-13T10:21:41;2.03;;;1.15;;
19566;SDS011;9930;49.240;8.548;2023-07-13T10:24:23;1.67;;;1.48;;
19566;SDS011;9930;49.240;8.548;2023-07-13T10:27:05;1.20;;;1.00;;
19566;SDS011;9930;49.240;8.548;2023-07-13T10:33:12;1.75;;;1.42;;
19566;SDS011;9930;49.240;8.548;2023-07-13T10:35:45;2.95;;;1.15;;
19566;SDS011;9930;49.240;8.548;2023-07-13T10:38:20;1.63;;;1.20;;
19566;SDS011;9930;49.240;8.548;2023-07-13T10:41:03;1.20;;;1.10;;
19566;SDS011;9930;49.240;8.548;2023-07-13T10:43:38;1.63;;;1.20;;
19566;SDS011;9930;49.240;8.548;2023-07-13T10:46:15;2.03;;;1.20;;
19566;SDS011;9930;49.240;8.548;2023-07-13T10:48:53;1.98;;;1.20;;
19566;SDS011;9930;49.240;8.548;2023-07-13T10:51:27;1.85;;;1.30;;
19566;SDS011;9930;49.240;8.548;2023-07-13T10:54:16;1.92;;;1.20;;
19566;SDS011;9930;49.240;8.548;2023-07-13T10:56:53;2.72;;;1.30;;
19566;SDS011;9930;49.240;8.548;2023-07-13T10:59:40;1.73;;;1.40;;
19566;SDS011;9930;49.240;8.548;2023-07-13T11:02:26;2.13;;;1.35;;
19566;SDS011;9930;49.240;8.548;2023-07-13T11:04:54;2.05;;;1.33;;
19566;SDS011;9930;49.240;8.548;2023-07-13T11:07:29;1.33;;;1.23;;
19566;SDS011;9930;49.240;8.548;2023-07-13T11:09:58;1.50;;;1.30;;
19566;SDS011;9930;49.240;8.548;2023-07-13T11:15:30;1.92;;;0.98;;
19566;SDS011;9930;49.240;8.548;2023-07-13T11:18:20;2.78;;;1.23;;
19566;SDS011;9930;49.240;8.548;2023-07-13T11:20:49;1.38;;;1.27;;
19566;SDS011;9930;49.240;8.548;2023-07-13T11:23:19;1.40;;;1.30;;
19566;SDS011;9930;49.240;8.548;2023-07-13T11:25:55;1.33;;;1.00;;
19566;SDS011;9930;49.240;8.548;2023-07-13T11:28:22;2.13;;;1.30;;
19566;SDS011;9930;49.240;8.548;2023-07-13T11:33:24;1.98;;;1.30;;
19566;SDS011;9930;49.240;8.548;2023-07-13T11:36:18;1.45;;;1.17;;
19566;SDS011;9930;49.240;8.548;2023-07-13T11:38:58;1.88;;;1.15;;
19566;SDS011;9930;49.240;8.548;2023-07-13T11:41:51;2.72;;;1.38;;
19566;SDS011;9930;49.240;8.548;2023-07-13T11:44:23;1.42;;;1.08;;
19566;SDS011;9930;49.240;8.548;2023-07-13T11:46:55;1.30;;;1.00;;
19566;SDS011;9930;49.240;8.548;2023-07-13T11:49:29;1.50;;;1.10;;
19566;SDS011;9930;49.240;8.548;2023-07-13T11:51:57;1.40;;;1.10;;
19566;SDS011;9930;49.240;8.548;2023-07-13T11:56:57;2.75;;;1.55;;
19566;SDS011;9930;49.240;8.548;2023-07-13T11:59:29;3.47;;;1.27;;
19566;SDS011;9930;49.240;8.548;2023-07-13T12:01:57;1.20;;;1.10;;
19566;SDS011;9930;49.240;8.548;2023-07-13T12:04:26;1.00;;;1.00;;
19566;SDS011;9930;49.240;8.548;2023-07-13T12:07:03;1.13;;;1.10;;
19566;SDS011;9930;49.240;8.548;2023-07-13T12:09:43;1.35;;;1.17;;
19566;SDS011;9930;49.240;8.548;2023-07-13T12:12:21;1.58;;;0.98;;
19566;SDS011;9930;49.240;8.548;2023-07-13T12:14:53;1.27;;;1.15;;
19566;SDS011;9930;49.240;8.548;2023-07-13T12:17:21;1.20;;;1.00;;
19566;SDS011;9930;49.240;8.548;2023-07-13T12:19:51;1.77;;;1.30;;
19566;SDS011;9930;49.240;8.548;2023-07-13T12:22:18;1.83;;;1.35;;
19566;SDS011;9930;49.240;8.548;2023-07-13T12:24:48;1.73;;;1.38;;
19566;SDS011;9930;49.240;8.548;2023-07-13T12:27:25;1.35;;;1.10;;
19566;SDS011;9930;49.240;8.548;2023-07-13T12:30:00;2.05;;;1.10;;
19566;SDS011;9930;49.240;8.548;2023-07-13T12:32:31;1.20;;;1.00;;
19566;SDS011;9930;49.240;8.548;2023-07-13T12:35:17;1.30;;;0.90;;
19566;SDS011;9930;49.240;8.548;2023-07-13T12:37:46;1.23;;;1.10;;
19566;SDS011;9930;49.240;8.548;2023-07-13T12:40:15;1.65;;;1.27;;
19566;SDS011;9930;49.240;8.548;2023-07-13T12:42:47;1.17;;;1.00;;
19566;SDS011;9930;49.240;8.548;2023-07-13T12:48:05;1.52;;;1.20;;
19566;SDS011;9930;49.240;8.548;2023-07-13T12:50:41;1.13;;;1.00;;
19566;SDS011;9930;49.240;8.548;2023-07-13T12:53:14;3.42;;;1.00;;
19566;SDS011;9930;49.240;8.548;2023-07-13T12:55:54;1.45;;;0.88;;
19566;SDS011;9930;49.240;8.548;2023-07-13T12:58:29;1.85;;;1.20;;
19566;SDS011;9930;49.240;8.548;2023-07-13T13:01:03;1.55;;;1.10;;
19566;SDS011;9930;49.240;8.548;2023-07-13T13:03:49;1.60;;;1.02;;
19566;SDS011;9930;49.240;8.548;2023-07-13T13:08:46;1.17;;;0.98;;
19566;SDS011;9930;49.240;8.548;2023-07-13T13:11:26;1.60;;;1.10;;
19566;SDS011;9930;49.240;8.548;2023-07-13T13:13:58;2.03;;;1.17;;
19566;SDS011;9930;49.240;8.548;2023-07-13T13:18:54;1.45;;;1.10;;
19566;SDS011;9930;49.240;8.548;2023-07-13T13:21:27;2.78;;;1.45;;
19566;SDS011;9930;49.240;8.548;2023-07-13T13:23:55;1.33;;;1.15;;
19566;SDS011;9930;49.240;8.548;2023-07-13T13:26:24;4.65;;;1.33;;
19566;SDS011;9930;49.240;8.548;2023-07-13T13:28:51;1.00;;;0.88;;
19566;SDS011;9930;49.240;8.548;2023-07-13T13:31:16;1.70;;;1.10;;
19566;SDS011;9930;49.240;8.548;2023-07-13T13:33:43;1.75;;;1.13;;
19566;SDS011;9930;49.240;8.548;2023-07-13T13:36:15;1.50;;;1.08;;
19566;SDS011;9930;49.240;8.548;2023-07-13T13:38:46;2.08;;;0.90;;
19566;SDS011;9930;49.240;8.548;2023-07-13T13:41:17;1.65;;;1.17;;
19566;SDS011;9930;49.240;8.548;2023-07-13T13:43:44;1.23;;;0.90;;
19566;SDS011;9930;49.240;8.548;2023-07-13T13:46:21;1.20;;;1.08;;
19566;SDS011;9930;49.240;8.548;2023-07-13T13:48:50;1.83;;;1.00;;
19566;SDS011;9930;49.240;8.548;2023-07-13T13:51:18;1.58;;;1.20;;
19566;SDS011;9930;49.240;8.548;2023-07-13T13:53:48;1.15;;;1.00;;
19566;SDS011;9930;49.240;8.548;2023-07-13T13:56:18;1.10;;;1.00;;
19566;SDS011;9930;49.240;8.548;2023-07-13T13:58:45;2.20;;;1.00;;
19566;SDS011;9930;49.240;8.548;2023-07-13T14:01:21;1.60;;;1.05;;
19566;SDS011;9930;49.240;8.548;2023-07-13T14:03:49;2.40;;;1.20;;
19566;SDS011;9930;49.240;8.548;2023-07-13T14:06:17;1.13;;;1.02;;
19566;SDS011;9930;49.240;8.548;2023-07-13T14:08:46;1.60;;;1.20;;
19566;SDS011;9930;49.240;8.548;2023-07-13T14:11:14;1.52;;;1.42;;
19566;SDS011;9930;49.240;8.548;2023-07-13T14:13:55;1.15;;;0.90;;
19566;SDS011;9930;49.240;8.548;2023-07-13T14:16:26;4.38;;;1.20;;
19566;SDS011;9930;49.240;8.548;2023-07-13T14:18:56;1.30;;;1.00;;
19566;SDS011;9930;49.240;8.548;2023-07-13T14:21:25;2.55;;;1.23;;
19566;SDS011;9930;49.240;8.548;2023-07-13T14:23:53;1.80;;;1.00;;
19566;SDS011;9930;49.240;8.548;2023-07-13T14:26:22;1.27;;;1.08;;
19566;SDS011;9930;49.240;8.548;2023-07-13T14:28:51;1.38;;;1.27;;
19566;SDS011;9930;49.240;8.548;2023-07-13T14:31:20;1.05;;;0.90;;
19566;SDS011;9930;49.240;8.548;2023-07-13T14:33:51;1.40;;;0.95;;
19566;SDS011;9930;49.240;8.548;2023-07-13T14:38:54;1.05;;;1.00;;
19566;SDS011;9930;49.240;8.548;2023-07-13T14:41:21;1.27;;;1.00;;
19566;SDS011;9930;49.240;8.548;2023-07-13T14:43:48;1.10;;;1.00;;
19566;SDS011;9930;49.240;8.548;2023-07-13T14:51:56;1.25;;;0.90;;
19566;SDS011;9930;49.240;8.548;2023-07-13T14:54:25;1.13;;;1.00;;
19566;SDS011;9930;49.240;8.548;2023-07-13T14:56:51;0.90;;;0.90;;
19566;SDS011;9930;49.240;8.548;2023-07-13T14:59:18;1.98;;;1.02;;
19566;SDS011;9930;49.240;8.548;2023-07-13T15:01:47;1.20;;;1.10;;
19566;SDS011;9930;49.240;8.548;2023-07-13T15:04:14;1.75;;;1.27;;
19566;SDS011;9930;49.240;8.548;2023-07-13T15:06:54;1.30;;;1.13;;
19566;SDS011;9930;49.240;8.548;2023-07-13T15:09:32;1.83;;;1.10;;
19566;SDS011;9930;49.240;8.548;2023-07-13T15:12:00;1.42;;;1.17;;
19566;SDS011;9930;49.240;8.548;2023-07-13T15:14:28;1.55;;;1.20;;
19566;SDS011;9930;49.240;8.548;2023-07-13T15:16:54;1.17;;;1.08;;
19566;SDS011;9930;49.240;8.548;2023-07-13T15:19:21;1.65;;;1.20;;
19566;SDS011;9930;49.240;8.548;2023-07-13T15:21:51;3.20;;;1.13;;
19566;SDS011;9930;49.240;8.548;2023-07-13T15:24:19;1.05;;;1.00;;
19566;SDS011;9930;49.240;8.548;2023-07-13T15:26:48;1.30;;;1.20;;
19566;SDS011;9930;49.240;8.548;2023-07-13T15:29:17;1.25;;;1.10;;
19566;SDS011;9930;49.240;8.548;2023-07-13T15:31:46;1.58;;;1.48;;
19566;SDS011;9930;49.240;8.548;2023-07-13T15:34:15;1.83;;;1.15;;
19566;SDS011;9930;49.240;8.548;2023-07-13T15:36:54;1.40;;;1.30;;
19566;SDS011;9930;49.240;8.548;2023-07-13T15:39:24;1.55;;;1.45;;
19566;SDS011;9930;49.240;8.548;2023-07-13T15:41:50;1.38;;;1.08;;
19566;SDS011;9930;49.240;8.548;2023-07-13T15:44:23;1.40;;;1.30;;
19566;SDS011;9930;49.240;8.548;2023-07-13T15:46:55;1.75;;;1.10;;
19566;SDS011;9930;49.240;8.548;2023-07-13T15:49:21;1.13;;;1.02;;
19566;SDS011;9930;49.240;8.548;2023-07-13T15:51:50;1.63;;;0.98;;
19566;SDS011;9930;49.240;8.548;2023-07-13T15:54:18;1.33;;;1.23;;
19566;SDS011;9930;49.240;8.548;2023-07-13T15:56:51;1.40;;;1.30;;
19566;SDS011;9930;49.240;8.548;2023-07-13T15:59:22;1.30;;;1.20;;
19566;SDS011;9930;49.240;8.548;2023-07-13T16:01:50;1.90;;;1.00;;
19566;SDS011;9930;49.240;8.548;2023-07-13T16:04:16;1.63;;;1.30;;
19566;SDS011;9930;49.240;8.548;2023-07-13T16:06:44;1.58;;;1.13;;
19566;SDS011;9930;49.240;8.548;2023-07-13T16:09:20;0.90;;;0.90;;
19566;SDS011;9930;49.240;8.548;2023-07-13T16:11:48;1.85;;;1.17;;
19566;SDS011;9930;49.240;8.548;2023-07-13T16:14:17;1.38;;;1.27;;